sensor_id;sensor_type;location;lat;lon;timestamp;P1;durP1;ratioP1;P2;durP2;ratioP2
25349;SDS011;13302;48.796;11.978;2023-01-15T00:00:42;0.30;;;0.30;;
25349;SDS011;13302;48.796;11.978;2023-01-15T00:03:30;0.57;;;0.57;;
25349;SDS011;13302;48.796;11.978;2023-01-15T00:06:17;0.70;;;0.47;;
25349;SDS011;13302;48.796;11.978;2023-01-15T00:09:06;0.53;;;0.53;;
25349;SDS011;13302;48.796;11.978;2023-01-15T00:11:54;0.50;;;0.50;;
25349;SDS011;13302;48.796;11.978;2023-01-15T00:14:41;0.73;;;0.60;;
25349;SDS011;13302;48.796;11.978;2023-01-15T00:17:28;0.70;;;0.70;;
25349;SDS011;13302;48.796;11.978;2023-01-15T00:20:15;0.73;;;0.73;;
25349;SDS011;13302;48.796;11.978;2023-01-15T00:23:02;0.70;;;0.70;;
25349;SDS011;13302;48.796;11.978;2023-01-15T00:25:50;1.00;;;1.00;;
25349;SDS011;13302;48.796;11.978;2023-01-15T00:29:00;0.70;;;0.70;;
25349;SDS011;13302;48.796;11.978;2023-01-15T00:31:57;0.93;;;0.93;;
25349;SDS011;13302;48.796;11.978;2023-01-15T00:34:49;0.90;;;0.90;;
25349;SDS011;13302;48.796;11.978;2023-01-15T00:37:36;1.10;;;1.10;;
25349;SDS011;13302;48.796;11.978;2023-01-15T00:40:23;0.80;;;0.80;;
25349;SDS011;13302;48.796;11.978;2023-01-15T00:43:10;1.07;;;1.03;;
25349;SDS011;13302;48.796;11.978;2023-01-15T00:45:57;1.20;;;1.20;;
25349;SDS011;13302;48.796;11.978;2023-01-15T00:48:44;1.10;;;1.10;;
25349;SDS011;13302;48.796;11.978;2023-01-15T00:51:31;1.00;;;1.00;;
25349;SDS011;13302;48.796;11.978;2023-01-15T00:54:19;0.90;;;0.90;;
25349;SDS011;13302;48.796;11.978;2023-01-15T00:57:06;2.07;;;1.00;;
25349;SDS011;13302;48.796;11.978;2023-01-15T00:59:53;1.10;;;1.10;;
25349;SDS011;13302;48.796;11.978;2023-01-15T01:02:40;1.77;;;0.90;;
25349;SDS011;13302;48.796;11.978;2023-01-15T01:05:28;0.90;;;0.90;;
25349;SDS011;13302;48.796;11.978;2023-01-15T01:08:16;1.07;;;1.07;;
25349;SDS011;13302;48.796;11.978;2023-01-15T01:11:08;1.00;;;1.00;;
25349;SDS011;13302;48.796;11.978;2023-01-15T01:13:58;1.17;;;1.07;;
25349;SDS011;13302;48.796;11.978;2023-01-15T01:16:47;1.00;;;1.00;;
25349;SDS011;13302;48.796;11.978;2023-01-15T01:19:34;1.10;;;1.10;;
25349;SDS011;13302;48.796;11.978;2023-01-15T01:22:22;1.30;;;1.27;;
25349;SDS011;13302;48.796;11.978;2023-01-15T01:25:09;0.90;;;0.90;;
25349;SDS011;13302;48.796;11.978;2023-01-15T01:27:57;0.90;;;0.90;;
25349;SDS011;13302;48.796;11.978;2023-01-15T01:30:45;1.13;;;1.13;;
25349;SDS011;13302;48.796;11.978;2023-01-15T01:33:32;2.40;;;1.10;;
25349;SDS011;13302;48.796;11.978;2023-01-15T01:36:19;0.83;;;0.83;;
25349;SDS011;13302;48.796;11.978;2023-01-15T01:39:14;0.80;;;0.80;;
25349;SDS011;13302;48.796;11.978;2023-01-15T01:42:02;0.77;;;0.77;;
25349;SDS011;13302;48.796;11.978;2023-01-15T01:47:36;0.87;;;0.60;;
25349;SDS011;13302;48.796;11.978;2023-01-15T01:50:24;1.00;;;1.00;;
25349;SDS011;13302;48.796;11.978;2023-01-15T01:53:17;1.00;;;1.00;;
25349;SDS011;13302;48.796;11.978;2023-01-15T01:56:07;0.60;;;0.60;;
25349;SDS011;13302;48.796;11.978;2023-01-15T01:58:57;0.73;;;0.73;;
25349;SDS011;13302;48.796;11.978;2023-01-15T02:01:44;1.23;;;0.80;;
25349;SDS011;13302;48.796;11.978;2023-01-15T02:04:32;0.70;;;0.70;;
25349;SDS011;13302;48.796;11.978;2023-01-15T02:07:20;0.60;;;0.60;;
25349;SDS011;13302;48.796;11.978;2023-01-15T02:10:12;0.83;;;0.83;;
25349;SDS011;13302;48.796;11.978;2023-01-15T02:13:06;0.60;;;0.60;;
25349;SDS011;13302;48.796;11.978;2023-01-15T02:16:01;0.70;;;0.70;;
25349;SDS011;13302;48.796;11.978;2023-01-15T02:18:59;0.80;;;0.80;;
25349;SDS011;13302;48.796;11.978;2023-01-15T02:25:43;0.80;;;0.80;;
25349;SDS011;13302;48.796;11.978;2023-01-15T02:28:51;0.77;;;0.77;;
25349;SDS011;13302;48.796;11.978;2023-01-15T02:31:42;0.80;;;0.80;;
25349;SDS011;13302;48.796;11.978;2023-01-15T02:34:36;1.83;;;0.70;;
25349;SDS011;13302;48.796;11.978;2023-01-15T02:37:30;0.83;;;0.83;;
25349;SDS011;13302;48.796;11.978;2023-01-15T02:40:20;0.67;;;0.67;;
25349;SDS011;13302;48.796;11.978;2023-01-15T02:43:10;0.80;;;0.80;;
25349;SDS011;13302;48.796;11.978;2023-01-15T02:46:02;0.80;;;0.80;;
25349;SDS011;13302;48.796;11.978;2023-01-15T02:48:53;0.63;;;0.63;;
25349;SDS011;13302;48.796;11.978;2023-01-15T02:51:51;0.70;;;0.70;;
25349;SDS011;13302;48.796;11.978;2023-01-15T02:54:46;0.70;;;0.70;;
25349;SDS011;13302;48.796;11.978;2023-01-15T02:57:36;0.77;;;0.77;;
25349;SDS011;13302;48.796;11.978;2023-01-15T03:00:24;0.80;;;0.80;;
25349;SDS011;13302;48.796;11.978;2023-01-15T03:03:25;1.00;;;1.00;;
25349;SDS011;13302;48.796;11.978;2023-01-15T03:06:26;0.90;;;0.90;;
25349;SDS011;13302;48.796;11.978;2023-01-15T03:09:23;0.80;;;0.80;;
25349;SDS011;13302;48.796;11.978;2023-01-15T03:12:14;0.80;;;0.80;;
25349;SDS011;13302;48.796;11.978;2023-01-15T03:15:16;0.80;;;0.80;;
25349;SDS011;13302;48.796;11.978;2023-01-15T03:18:27;1.40;;;1.00;;
25349;SDS011;13302;48.796;11.978;2023-01-15T03:21:20;0.93;;;0.80;;
25349;SDS011;13302;48.796;11.978;2023-01-15T03:24:18;0.70;;;0.70;;
25349;SDS011;13302;48.796;11.978;2023-01-15T03:27:11;0.80;;;0.80;;
25349;SDS011;13302;48.796;11.978;2023-01-15T03:30:13;0.87;;;0.87;;
25349;SDS011;13302;48.796;11.978;2023-01-15T03:33:02;0.87;;;0.87;;
25349;SDS011;13302;48.796;11.978;2023-01-15T03:38:56;0.80;;;0.80;;
25349;SDS011;13302;48.796;11.978;2023-01-15T03:42:19;0.90;;;0.90;;
25349;SDS011;13302;48.796;11.978;2023-01-15T03:45:19;0.90;;;0.90;;
25349;SDS011;13302;48.796;11.978;2023-01-15T03:48:33;1.73;;;0.83;;
25349;SDS011;13302;48.796;11.978;2023-01-15T03:51:27;0.90;;;0.90;;
25349;SDS011;13302;48.796;11.978;2023-01-15T03:54:28;1.17;;;0.67;;
25349;SDS011;13302;48.796;11.978;2023-01-15T03:57:44;0.90;;;0.90;;
25349;SDS011;13302;48.796;11.978;2023-01-15T04:00:36;1.00;;;0.90;;
25349;SDS011;13302;48.796;11.978;2023-01-15T04:03:29;0.90;;;0.90;;
25349;SDS011;13302;48.796;11.978;2023-01-15T04:06:19;0.80;;;0.80;;
25349;SDS011;13302;48.796;11.978;2023-01-15T04:09:09;0.80;;;0.80;;
25349;SDS011;13302;48.796;11.978;2023-01-15T04:11:59;0.90;;;0.90;;
25349;SDS011;13302;48.796;11.978;2023-01-15T04:14:50;0.90;;;0.90;;
25349;SDS011;13302;48.796;11.978;2023-01-15T04:17:40;0.80;;;0.80;;
25349;SDS011;13302;48.796;11.978;2023-01-15T04:20:27;1.13;;;1.13;;
25349;SDS011;13302;48.796;11.978;2023-01-15T04:23:14;0.83;;;0.83;;
25349;SDS011;13302;48.796;11.978;2023-01-15T04:26:01;0.80;;;0.80;;
25349;SDS011;13302;48.796;11.978;2023-01-15T04:28:48;0.90;;;0.90;;
25349;SDS011;13302;48.796;11.978;2023-01-15T04:31:35;0.80;;;0.80;;
25349;SDS011;13302;48.796;11.978;2023-01-15T04:34:26;0.80;;;0.80;;
25349;SDS011;13302;48.796;11.978;2023-01-15T04:37:14;0.80;;;0.80;;
25349;SDS011;13302;48.796;11.978;2023-01-15T04:40:02;0.93;;;0.93;;
25349;SDS011;13302;48.796;11.978;2023-01-15T04:42:50;0.80;;;0.80;;
25349;SDS011;13302;48.796;11.978;2023-01-15T04:45:55;0.60;;;0.60;;
25349;SDS011;13302;48.796;11.978;2023-01-15T04:48:43;0.90;;;0.80;;
25349;SDS011;13302;48.796;11.978;2023-01-15T04:51:30;0.87;;;0.87;;
25349;SDS011;13302;48.796;11.978;2023-01-15T04:54:17;0.80;;;0.80;;
25349;SDS011;13302;48.796;11.978;2023-01-15T04:57:04;0.90;;;0.83;;
25349;SDS011;13302;48.796;11.978;2023-01-15T04:59:52;0.87;;;0.87;;
25349;SDS011;13302;48.796;11.978;2023-01-15T05:02:39;0.80;;;0.80;;
25349;SDS011;13302;48.796;11.978;2023-01-15T05:05:26;1.30;;;1.00;;
25349;SDS011;13302;48.796;11.978;2023-01-15T05:08:13;0.73;;;0.73;;
25349;SDS011;13302;48.796;11.978;2023-01-15T05:11:04;0.80;;;0.80;;
25349;SDS011;13302;48.796;11.978;2023-01-15T05:13:52;1.10;;;1.10;;
25349;SDS011;13302;48.796;11.978;2023-01-15T05:16:40;0.90;;;0.90;;
25349;SDS011;13302;48.796;11.978;2023-01-15T05:19:27;0.90;;;0.90;;
25349;SDS011;13302;48.796;11.978;2023-01-15T05:22:14;0.93;;;0.93;;
25349;SDS011;13302;48.796;11.978;2023-01-15T05:25:01;0.90;;;0.90;;
25349;SDS011;13302;48.796;11.978;2023-01-15T05:27:48;0.90;;;0.90;;
25349;SDS011;13302;48.796;11.978;2023-01-15T05:30:35;1.10;;;1.00;;
25349;SDS011;13302;48.796;11.978;2023-01-15T05:33:22;0.90;;;0.90;;
25349;SDS011;13302;48.796;11.978;2023-01-15T05:36:11;1.00;;;1.00;;
25349;SDS011;13302;48.796;11.978;2023-01-15T05:39:00;0.83;;;0.83;;
25349;SDS011;13302;48.796;11.978;2023-01-15T05:41:48;0.73;;;0.73;;
25349;SDS011;13302;48.796;11.978;2023-01-15T05:44:35;0.83;;;0.83;;
25349;SDS011;13302;48.796;11.978;2023-01-15T05:47:22;1.00;;;1.00;;
25349;SDS011;13302;48.796;11.978;2023-01-15T05:50:09;0.87;;;0.87;;
25349;SDS011;13302;48.796;11.978;2023-01-15T05:52:56;1.10;;;1.10;;
25349;SDS011;13302;48.796;11.978;2023-01-15T05:55:43;0.83;;;0.83;;
25349;SDS011;13302;48.796;11.978;2023-01-15T05:58:31;0.73;;;0.73;;
25349;SDS011;13302;48.796;11.978;2023-01-15T06:01:18;0.97;;;0.97;;
25349;SDS011;13302;48.796;11.978;2023-01-15T06:04:06;1.27;;;1.17;;
25349;SDS011;13302;48.796;11.978;2023-01-15T06:06:54;0.80;;;0.80;;
25349;SDS011;13302;48.796;11.978;2023-01-15T06:09:43;0.83;;;0.83;;
25349;SDS011;13302;48.796;11.978;2023-01-15T06:12:31;0.90;;;0.90;;
25349;SDS011;13302;48.796;11.978;2023-01-15T06:15:18;0.87;;;0.87;;
25349;SDS011;13302;48.796;11.978;2023-01-15T06:18:05;1.00;;;1.00;;
25349;SDS011;13302;48.796;11.978;2023-01-15T06:20:53;1.00;;;1.00;;
25349;SDS011;13302;48.796;11.978;2023-01-15T06:23:40;0.90;;;0.90;;
25349;SDS011;13302;48.796;11.978;2023-01-15T06:26:28;0.80;;;0.80;;
25349;SDS011;13302;48.796;11.978;2023-01-15T06:29:15;1.43;;;0.90;;
25349;SDS011;13302;48.796;11.978;2023-01-15T06:32:04;0.77;;;0.77;;
25349;SDS011;13302;48.796;11.978;2023-01-15T06:34:52;0.80;;;0.80;;
25349;SDS011;13302;48.796;11.978;2023-01-15T06:37:39;0.70;;;0.70;;
25349;SDS011;13302;48.796;11.978;2023-01-15T06:40:26;0.80;;;0.80;;
25349;SDS011;13302;48.796;11.978;2023-01-15T06:43:14;0.90;;;0.90;;
25349;SDS011;13302;48.796;11.978;2023-01-15T06:46:20;0.80;;;0.80;;
25349;SDS011;13302;48.796;11.978;2023-01-15T06:49:26;0.73;;;0.73;;
25349;SDS011;13302;48.796;11.978;2023-01-15T06:52:13;0.70;;;0.70;;
25349;SDS011;13302;48.796;11.978;2023-01-15T06:55:00;0.90;;;0.87;;
25349;SDS011;13302;48.796;11.978;2023-01-15T06:57:46;1.30;;;0.90;;
25349;SDS011;13302;48.796;11.978;2023-01-15T07:00:34;1.03;;;0.80;;
25349;SDS011;13302;48.796;11.978;2023-01-15T07:03:21;0.70;;;0.70;;
25349;SDS011;13302;48.796;11.978;2023-01-15T07:06:09;0.80;;;0.60;;
25349;SDS011;13302;48.796;11.978;2023-01-15T07:08:58;0.60;;;0.60;;
25349;SDS011;13302;48.796;11.978;2023-01-15T07:11:45;0.70;;;0.70;;
25349;SDS011;13302;48.796;11.978;2023-01-15T07:14:35;0.70;;;0.70;;
25349;SDS011;13302;48.796;11.978;2023-01-15T07:17:23;0.47;;;0.47;;
25349;SDS011;13302;48.796;11.978;2023-01-15T07:20:10;0.50;;;0.50;;
25349;SDS011;13302;48.796;11.978;2023-01-15T07:22:57;0.40;;;0.40;;
25349;SDS011;13302;48.796;11.978;2023-01-15T07:25:44;0.30;;;0.30;;
25349;SDS011;13302;48.796;11.978;2023-01-15T07:28:31;0.37;;;0.37;;
25349;SDS011;13302;48.796;11.978;2023-01-15T07:31:18;0.40;;;0.40;;
25349;SDS011;13302;48.796;11.978;2023-01-15T07:34:06;0.20;;;0.20;;
25349;SDS011;13302;48.796;11.978;2023-01-15T07:36:53;0.20;;;0.20;;
25349;SDS011;13302;48.796;11.978;2023-01-15T07:39:40;0.37;;;0.37;;
25349;SDS011;13302;48.796;11.978;2023-01-15T07:42:27;0.30;;;0.30;;
25349;SDS011;13302;48.796;11.978;2023-01-15T07:45:33;0.20;;;0.20;;
25349;SDS011;13302;48.796;11.978;2023-01-15T07:48:52;0.90;;;0.30;;
25349;SDS011;13302;48.796;11.978;2023-01-15T07:51:58;0.30;;;0.30;;
25349;SDS011;13302;48.796;11.978;2023-01-15T07:54:45;0.30;;;0.30;;
25349;SDS011;13302;48.796;11.978;2023-01-15T07:57:36;0.40;;;0.40;;
25349;SDS011;13302;48.796;11.978;2023-01-15T08:00:23;0.30;;;0.30;;
25349;SDS011;13302;48.796;11.978;2023-01-15T08:03:10;0.30;;;0.30;;
25349;SDS011;13302;48.796;11.978;2023-01-15T08:05:57;0.23;;;0.23;;
25349;SDS011;13302;48.796;11.978;2023-01-15T08:08:44;0.50;;;0.30;;
25349;SDS011;13302;48.796;11.978;2023-01-15T08:11:32;0.33;;;0.33;;
25349;SDS011;13302;48.796;11.978;2023-01-15T08:14:38;0.20;;;0.20;;
25349;SDS011;13302;48.796;11.978;2023-01-15T08:17:45;0.40;;;0.40;;
25349;SDS011;13302;48.796;11.978;2023-01-15T08:20:33;0.17;;;0.17;;
25349;SDS011;13302;48.796;11.978;2023-01-15T08:23:21;0.30;;;0.30;;
25349;SDS011;13302;48.796;11.978;2023-01-15T08:26:08;0.20;;;0.20;;
25349;SDS011;13302;48.796;11.978;2023-01-15T08:28:55;0.30;;;0.30;;
25349;SDS011;13302;48.796;11.978;2023-01-15T08:31:43;0.30;;;0.30;;
25349;SDS011;13302;48.796;11.978;2023-01-15T08:34:30;0.30;;;0.30;;
25349;SDS011;13302;48.796;11.978;2023-01-15T08:37:17;0.30;;;0.30;;
25349;SDS011;13302;48.796;11.978;2023-01-15T08:40:04;0.30;;;0.30;;
25349;SDS011;13302;48.796;11.978;2023-01-15T08:42:52;0.10;;;0.10;;
25349;SDS011;13302;48.796;11.978;2023-01-15T08:45:42;0.20;;;0.20;;
25349;SDS011;13302;48.796;11.978;2023-01-15T08:48:29;0.53;;;0.43;;
25349;SDS011;13302;48.796;11.978;2023-01-15T08:51:18;0.30;;;0.30;;
25349;SDS011;13302;48.796;11.978;2023-01-15T08:54:06;0.30;;;0.30;;
25349;SDS011;13302;48.796;11.978;2023-01-15T08:56:53;0.20;;;0.20;;
25349;SDS011;13302;48.796;11.978;2023-01-15T08:59:40;0.20;;;0.20;;
25349;SDS011;13302;48.796;11.978;2023-01-15T09:02:29;0.30;;;0.30;;
25349;SDS011;13302;48.796;11.978;2023-01-15T09:05:16;0.20;;;0.20;;
25349;SDS011;13302;48.796;11.978;2023-01-15T09:08:04;0.20;;;0.20;;
25349;SDS011;13302;48.796;11.978;2023-01-15T09:10:55;1.03;;;0.30;;
25349;SDS011;13302;48.796;11.978;2023-01-15T09:13:44;0.30;;;0.30;;
25349;SDS011;13302;48.796;11.978;2023-01-15T09:16:37;0.30;;;0.30;;
25349;SDS011;13302;48.796;11.978;2023-01-15T09:19:24;0.27;;;0.27;;
25349;SDS011;13302;48.796;11.978;2023-01-15T09:22:11;0.20;;;0.20;;
25349;SDS011;13302;48.796;11.978;2023-01-15T09:24:59;0.20;;;0.20;;
25349;SDS011;13302;48.796;11.978;2023-01-15T09:27:46;0.53;;;0.30;;
25349;SDS011;13302;48.796;11.978;2023-01-15T09:30:35;0.47;;;0.30;;
25349;SDS011;13302;48.796;11.978;2023-01-15T09:33:22;0.60;;;0.50;;
25349;SDS011;13302;48.796;11.978;2023-01-15T09:36:14;1.07;;;1.07;;
25349;SDS011;13302;48.796;11.978;2023-01-15T09:39:03;0.63;;;0.63;;
25349;SDS011;13302;48.796;11.978;2023-01-15T09:42:04;0.50;;;0.50;;
25349;SDS011;13302;48.796;11.978;2023-01-15T09:48:16;0.50;;;0.50;;
25349;SDS011;13302;48.796;11.978;2023-01-15T09:54:10;0.20;;;0.20;;
25349;SDS011;13302;48.796;11.978;2023-01-15T09:57:10;0.20;;;0.20;;
25349;SDS011;13302;48.796;11.978;2023-01-15T09:59:59;0.33;;;0.33;;
25349;SDS011;13302;48.796;11.978;2023-01-15T10:09:16;0.20;;;0.20;;
25349;SDS011;13302;48.796;11.978;2023-01-15T10:12:12;1.07;;;0.60;;
25349;SDS011;13302;48.796;11.978;2023-01-15T10:15:31;0.60;;;0.60;;
25349;SDS011;13302;48.796;11.978;2023-01-15T10:18:24;0.40;;;0.40;;
25349;SDS011;13302;48.796;11.978;2023-01-15T10:21:16;0.50;;;0.50;;
25349;SDS011;13302;48.796;11.978;2023-01-15T10:27:26;0.50;;;0.50;;
25349;SDS011;13302;48.796;11.978;2023-01-15T10:36:39;0.40;;;0.40;;
25349;SDS011;13302;48.796;11.978;2023-01-15T10:39:33;0.30;;;0.30;;
25349;SDS011;13302;48.796;11.978;2023-01-15T10:42:29;0.20;;;0.20;;
25349;SDS011;13302;48.796;11.978;2023-01-15T10:45:39;0.20;;;0.20;;
25349;SDS011;13302;48.796;11.978;2023-01-15T10:48:33;0.10;;;0.10;;
25349;SDS011;13302;48.796;11.978;2023-01-15T10:54:43;0.20;;;0.20;;
25349;SDS011;13302;48.796;11.978;2023-01-15T11:00:29;0.20;;;0.20;;
25349;SDS011;13302;48.796;11.978;2023-01-15T11:03:21;0.23;;;0.23;;
25349;SDS011;13302;48.796;11.978;2023-01-15T11:06:21;0.10;;;0.10;;
25349;SDS011;13302;48.796;11.978;2023-01-15T11:09:18;0.10;;;0.10;;
25349;SDS011;13302;48.796;11.978;2023-01-15T11:15:15;0.20;;;0.20;;
25349;SDS011;13302;48.796;11.978;2023-01-15T11:18:32;0.30;;;0.30;;
25349;SDS011;13302;48.796;11.978;2023-01-15T11:21:43;0.40;;;0.40;;
25349;SDS011;13302;48.796;11.978;2023-01-15T11:24:30;0.30;;;0.30;;
25349;SDS011;13302;48.796;11.978;2023-01-15T11:27:20;0.50;;;0.50;;
25349;SDS011;13302;48.796;11.978;2023-01-15T11:33:25;1.03;;;0.70;;
25349;SDS011;13302;48.796;11.978;2023-01-15T11:36:19;0.77;;;0.77;;
25349;SDS011;13302;48.796;11.978;2023-01-15T11:39:21;0.80;;;0.80;;
25349;SDS011;13302;48.796;11.978;2023-01-15T11:42:14;0.40;;;0.40;;
25349;SDS011;13302;48.796;11.978;2023-01-15T11:45:25;0.20;;;0.20;;
25349;SDS011;13302;48.796;11.978;2023-01-15T11:48:41;0.90;;;0.90;;
25349;SDS011;13302;48.796;11.978;2023-01-15T11:51:48;0.80;;;0.80;;
25349;SDS011;13302;48.796;11.978;2023-01-15T11:54:36;0.57;;;0.57;;
25349;SDS011;13302;48.796;11.978;2023-01-15T11:57:27;0.50;;;0.50;;
25349;SDS011;13302;48.796;11.978;2023-01-15T12:03:14;0.30;;;0.30;;
25349;SDS011;13302;48.796;11.978;2023-01-15T12:06:08;0.20;;;0.20;;
25349;SDS011;13302;48.796;11.978;2023-01-15T12:09:13;0.20;;;0.20;;
25349;SDS011;13302;48.796;11.978;2023-01-15T12:15:11;0.20;;;0.20;;
25349;SDS011;13302;48.796;11.978;2023-01-15T12:21:23;2.83;;;2.63;;
25349;SDS011;13302;48.796;11.978;2023-01-15T12:27:41;13.83;;;10.47;;
25349;SDS011;13302;48.796;11.978;2023-01-15T12:37:29;5.97;;;5.13;;
25349;SDS011;13302;48.796;11.978;2023-01-15T12:40:24;3.50;;;3.20;;
25349;SDS011;13302;48.796;11.978;2023-01-15T12:43:17;4.77;;;4.30;;
25349;SDS011;13302;48.796;11.978;2023-01-15T12:46:28;5.27;;;4.77;;
25349;SDS011;13302;48.796;11.978;2023-01-15T12:49:28;4.20;;;3.80;;
25349;SDS011;13302;48.796;11.978;2023-01-15T12:52:21;3.40;;;3.10;;
25349;SDS011;13302;48.796;11.978;2023-01-15T12:55:18;2.50;;;2.30;;
25349;SDS011;13302;48.796;11.978;2023-01-15T12:58:11;1.77;;;1.70;;
25349;SDS011;13302;48.796;11.978;2023-01-15T13:04:23;0.80;;;0.60;;
25349;SDS011;13302;48.796;11.978;2023-01-15T13:07:32;0.40;;;0.40;;
25349;SDS011;13302;48.796;11.978;2023-01-15T13:10:26;3.67;;;3.30;;
25349;SDS011;13302;48.796;11.978;2023-01-15T13:13:23;7.63;;;6.07;;
25349;SDS011;13302;48.796;11.978;2023-01-15T13:16:17;5.67;;;5.03;;
25349;SDS011;13302;48.796;11.978;2023-01-15T13:22:32;4.27;;;3.87;;
25349;SDS011;13302;48.796;11.978;2023-01-15T13:25:30;3.70;;;3.40;;
25349;SDS011;13302;48.796;11.978;2023-01-15T13:28:43;4.50;;;4.07;;
25349;SDS011;13302;48.796;11.978;2023-01-15T13:34:46;2.27;;;2.17;;
25349;SDS011;13302;48.796;11.978;2023-01-15T13:37:45;2.07;;;1.97;;
25349;SDS011;13302;48.796;11.978;2023-01-15T13:40:37;3.87;;;3.57;;
25349;SDS011;13302;48.796;11.978;2023-01-15T13:43:33;3.53;;;3.23;;
25349;SDS011;13302;48.796;11.978;2023-01-15T13:46:25;1.90;;;1.80;;
25349;SDS011;13302;48.796;11.978;2023-01-15T13:49:16;1.80;;;1.70;;
25349;SDS011;13302;48.796;11.978;2023-01-15T13:52:17;1.00;;;1.00;;
25349;SDS011;13302;48.796;11.978;2023-01-15T13:55:21;0.70;;;0.70;;
25349;SDS011;13302;48.796;11.978;2023-01-15T13:58:22;1.20;;;1.20;;
25349;SDS011;13302;48.796;11.978;2023-01-15T14:06:55;0.40;;;0.40;;
25349;SDS011;13302;48.796;11.978;2023-01-15T14:09:42;0.40;;;0.40;;
25349;SDS011;13302;48.796;11.978;2023-01-15T14:13:12;0.40;;;0.40;;
25349;SDS011;13302;48.796;11.978;2023-01-15T14:19:22;0.30;;;0.30;;
25349;SDS011;13302;48.796;11.978;2023-01-15T14:22:42;0.40;;;0.40;;
25349;SDS011;13302;48.796;11.978;2023-01-15T14:28:59;0.30;;;0.30;;
25349;SDS011;13302;48.796;11.978;2023-01-15T14:35:13;0.30;;;0.30;;
25349;SDS011;13302;48.796;11.978;2023-01-15T14:38:06;0.17;;;0.17;;
25349;SDS011;13302;48.796;11.978;2023-01-15T14:40:59;0.33;;;0.30;;
25349;SDS011;13302;48.796;11.978;2023-01-15T14:43:50;0.20;;;0.20;;
25349;SDS011;13302;48.796;11.978;2023-01-15T14:46:38;0.20;;;0.20;;
25349;SDS011;13302;48.796;11.978;2023-01-15T14:49:28;0.10;;;0.10;;
25349;SDS011;13302;48.796;11.978;2023-01-15T14:52:22;0.20;;;0.20;;
25349;SDS011;13302;48.796;11.978;2023-01-15T14:55:10;0.20;;;0.20;;
25349;SDS011;13302;48.796;11.978;2023-01-15T14:57:59;0.40;;;0.40;;
25349;SDS011;13302;48.796;11.978;2023-01-15T15:00:51;0.20;;;0.20;;
25349;SDS011;13302;48.796;11.978;2023-01-15T15:03:46;0.43;;;0.30;;
25349;SDS011;13302;48.796;11.978;2023-01-15T15:06:43;0.20;;;0.20;;
25349;SDS011;13302;48.796;11.978;2023-01-15T15:09:35;0.10;;;0.10;;
25349;SDS011;13302;48.796;11.978;2023-01-15T15:15:26;0.20;;;0.20;;
25349;SDS011;13302;48.796;11.978;2023-01-15T15:18:23;0.27;;;0.23;;
25349;SDS011;13302;48.796;11.978;2023-01-15T15:21:18;0.30;;;0.30;;
25349;SDS011;13302;48.796;11.978;2023-01-15T15:24:23;0.23;;;0.23;;
25349;SDS011;13302;48.796;11.978;2023-01-15T15:27:17;0.30;;;0.30;;
25349;SDS011;13302;48.796;11.978;2023-01-15T15:30:08;0.40;;;0.40;;
25349;SDS011;13302;48.796;11.978;2023-01-15T15:32:58;0.30;;;0.27;;
25349;SDS011;13302;48.796;11.978;2023-01-15T15:35:56;0.30;;;0.30;;
25349;SDS011;13302;48.796;11.978;2023-01-15T15:38:52;0.17;;;0.17;;
25349;SDS011;13302;48.796;11.978;2023-01-15T15:41:44;0.23;;;0.23;;
25349;SDS011;13302;48.796;11.978;2023-01-15T15:44:58;0.27;;;0.27;;
25349;SDS011;13302;48.796;11.978;2023-01-15T15:48:18;0.60;;;0.60;;
25349;SDS011;13302;48.796;11.978;2023-01-15T15:51:35;0.37;;;0.37;;
25349;SDS011;13302;48.796;11.978;2023-01-15T15:54:26;0.30;;;0.30;;
25349;SDS011;13302;48.796;11.978;2023-01-15T15:57:15;0.10;;;0.10;;
25349;SDS011;13302;48.796;11.978;2023-01-15T16:00:09;0.97;;;0.30;;
25349;SDS011;13302;48.796;11.978;2023-01-15T16:03:14;0.30;;;0.30;;
25349;SDS011;13302;48.796;11.978;2023-01-15T16:06:06;0.40;;;0.40;;
25349;SDS011;13302;48.796;11.978;2023-01-15T16:08:54;0.20;;;0.20;;
25349;SDS011;13302;48.796;11.978;2023-01-15T16:11:47;0.33;;;0.33;;
25349;SDS011;13302;48.796;11.978;2023-01-15T16:14:35;0.17;;;0.17;;
25349;SDS011;13302;48.796;11.978;2023-01-15T16:17:24;0.27;;;0.27;;
25349;SDS011;13302;48.796;11.978;2023-01-15T16:20:15;0.20;;;0.20;;
25349;SDS011;13302;48.796;11.978;2023-01-15T16:23:04;0.37;;;0.20;;
25349;SDS011;13302;48.796;11.978;2023-01-15T16:25:57;0.30;;;0.30;;
25349;SDS011;13302;48.796;11.978;2023-01-15T16:28:51;0.63;;;0.50;;
25349;SDS011;13302;48.796;11.978;2023-01-15T16:31:40;0.30;;;0.30;;
25349;SDS011;13302;48.796;11.978;2023-01-15T16:34:28;0.20;;;0.20;;
25349;SDS011;13302;48.796;11.978;2023-01-15T16:37:22;0.30;;;0.30;;
25349;SDS011;13302;48.796;11.978;2023-01-15T16:40:20;0.30;;;0.30;;
25349;SDS011;13302;48.796;11.978;2023-01-15T16:43:16;0.30;;;0.30;;
25349;SDS011;13302;48.796;11.978;2023-01-15T16:55:40;0.20;;;0.20;;
25349;SDS011;13302;48.796;11.978;2023-01-15T16:58:34;0.30;;;0.30;;
25349;SDS011;13302;48.796;11.978;2023-01-15T17:01:22;0.77;;;0.27;;
25349;SDS011;13302;48.796;11.978;2023-01-15T17:07:30;0.20;;;0.20;;
25349;SDS011;13302;48.796;11.978;2023-01-15T17:10:22;0.40;;;0.40;;
25349;SDS011;13302;48.796;11.978;2023-01-15T17:13:17;0.30;;;0.30;;
25349;SDS011;13302;48.796;11.978;2023-01-15T17:18:58;0.40;;;0.40;;
25349;SDS011;13302;48.796;11.978;2023-01-15T17:21:45;0.43;;;0.43;;
25349;SDS011;13302;48.796;11.978;2023-01-15T17:24:33;0.30;;;0.30;;
25349;SDS011;13302;48.796;11.978;2023-01-15T17:27:20;0.90;;;0.50;;
25349;SDS011;13302;48.796;11.978;2023-01-15T17:30:10;0.60;;;0.60;;
25349;SDS011;13302;48.796;11.978;2023-01-15T17:32:58;0.60;;;0.60;;
25349;SDS011;13302;48.796;11.978;2023-01-15T17:35:46;1.33;;;1.23;;
25349;SDS011;13302;48.796;11.978;2023-01-15T17:38:34;1.43;;;1.33;;
25349;SDS011;13302;48.796;11.978;2023-01-15T17:41:21;0.80;;;0.80;;
25349;SDS011;13302;48.796;11.978;2023-01-15T17:44:09;0.60;;;0.60;;
25349;SDS011;13302;48.796;11.978;2023-01-15T17:46:56;0.70;;;0.70;;
25349;SDS011;13302;48.796;11.978;2023-01-15T17:49:43;0.70;;;0.70;;
25349;SDS011;13302;48.796;11.978;2023-01-15T17:52:30;0.70;;;0.70;;
25349;SDS011;13302;48.796;11.978;2023-01-15T17:55:19;1.00;;;0.63;;
25349;SDS011;13302;48.796;11.978;2023-01-15T17:58:26;0.60;;;0.60;;
25349;SDS011;13302;48.796;11.978;2023-01-15T18:01:34;0.60;;;0.60;;
25349;SDS011;13302;48.796;11.978;2023-01-15T18:04:44;0.50;;;0.50;;
25349;SDS011;13302;48.796;11.978;2023-01-15T18:07:53;0.60;;;0.60;;
25349;SDS011;13302;48.796;11.978;2023-01-15T18:10:44;0.80;;;0.80;;
25349;SDS011;13302;48.796;11.978;2023-01-15T18:13:31;0.63;;;0.63;;
25349;SDS011;13302;48.796;11.978;2023-01-15T18:16:18;0.60;;;0.60;;
25349;SDS011;13302;48.796;11.978;2023-01-15T18:19:05;0.53;;;0.53;;
25349;SDS011;13302;48.796;11.978;2023-01-15T18:21:52;0.50;;;0.50;;
25349;SDS011;13302;48.796;11.978;2023-01-15T18:24:39;0.93;;;0.93;;
25349;SDS011;13302;48.796;11.978;2023-01-15T18:27:27;0.80;;;0.80;;
25349;SDS011;13302;48.796;11.978;2023-01-15T18:30:16;0.70;;;0.70;;
25349;SDS011;13302;48.796;11.978;2023-01-15T18:33:03;1.00;;;1.00;;
25349;SDS011;13302;48.796;11.978;2023-01-15T18:35:59;0.93;;;0.80;;
25349;SDS011;13302;48.796;11.978;2023-01-15T18:38:49;0.70;;;0.70;;
25349;SDS011;13302;48.796;11.978;2023-01-15T18:41:37;0.50;;;0.50;;
25349;SDS011;13302;48.796;11.978;2023-01-15T18:44:25;0.60;;;0.60;;
25349;SDS011;13302;48.796;11.978;2023-01-15T18:47:31;1.60;;;0.50;;
25349;SDS011;13302;48.796;11.978;2023-01-15T18:50:18;0.43;;;0.43;;